METAR stanice u blizini

 

LDDU - Dubrovnik-Cilipi, Croatia
Distance from station: JJZ 17km
Ažurirano: 29/05/2024 04:00
Vedro
Vedro
 Pravac vetra SI
Vetar: SI 6 km/h
Temperatura: 18°C
Tačka rose: 14°C
Vlažnost: 78%
Pritisak: 1014 hPa
Pregled: Vedro
Vidljivost: greater than 10 km
2024/05/29 02:00 LDDU 290200Z 04003KT 010V070 CAVOK 18/14 Q1014 NOSIG
LYTV - Tivat, Montenegro
Distance from station: JI 48km
Ažurirano: 29/05/2024 04:00
Oblačno
Oblačno
 Pravac vetra JI
Vetar: JI 2 km/h
Temperatura: 16°C
Tačka rose: 16°C
Vlažnost: 100%
Pritisak: 1014 hPa
Oblaci: Oblačno
Vidljivost: 10 km
Cloud details: Mostly Cloudy 1097 m
Oblačno 2865 m
2024/05/29 02:00 LYTV 290200Z AUTO 14001KT 9999 BKN036/// OVC094/// 16/16 Q1014
LQMO - Mostar Airport, Bosnia-Herzegovina
Distance from station: SSZ 76km
Ažurirano: 29/05/2024 04:00
Partly Cloudy
Partly Cloudy
 Pravac vetra J
Vetar: J 4 km/h
Temperatura: 16°C
Tačka rose: 15°C
Vlažnost: 94%
Pritisak: 1013 hPa
Oblaci: Partly Cloudy
Vidljivost: 10 km
Cloud details: Few Clouds 1524 m
Partly Cloudy 2743 m
2024/05/29 02:00 LQMO 290200Z 17002KT 9999 FEW050 SCT090 16/15 Q1013
 
LYPG - Podgorica(Titogr, Montenegro
Distance from station: IJI 84km
Ažurirano: 29/05/2024 04:00
Vedro
Vedro
 Pravac vetra calm
Vetar: Tišina
Temperatura: 16°C
Tačka rose: 15°C
Vlažnost: 94%
Pritisak: 1014 hPa
Pregled: Vedro
Vidljivost: greater than 10 km
2024/05/29 02:00 LYPG 290200Z 00000KT CAVOK 16/15 Q1014 NOSIG
LQSA - Sarajevo/Butmir, Bosnia-Herzegovina
Distance from station: S 123km
Ažurirano: 29/05/2024 04:00
Mostly Cloudy
Mostly Cloudy
 Pravac vetra varies
Vetar: varies 4 km/h
Temperatura: 13°C
Tačka rose: 13°C
Vlažnost: 100%
Pritisak: 1017 hPa
Oblaci: Mostly Cloudy
Vidljivost: 7 km
Cloud details: Partly Cloudy 213 m
Mostly Cloudy 914 m
2024/05/29 02:00 LQSA 290200Z VRB02KT 7000 SCT007 BKN030 13/13 Q1017
LDSB - Bol Airport, Croatia
Distance from station: ZSZ 149km
Ažurirano: 26/05/2024 12:00
NOT Current
Slaba kiša, Pretežno oblačno
Slaba kiša, Pretežno oblačno
 Pravac vetra SZ
Vetar: SZ 15 km/h
Temperatura: 14°C
Tačka rose: 12°C
Vlažnost: 88%
Pritisak: 1018 hPa
Pregled: Light Rain
Oblaci: Mostly Cloudy
Vidljivost: 10 km
Cloud details: Mostly Cloudy 914 m
2024/05/26 10:00 LDSB 261000Z 32008KT 9999 -RA BKN030 14/12 Q1018
 
LYUZ - Uzice-Ponikve, Serbia
Distance from station: SI 172km
Ažurirano: 04/11/2021 00:30
NOT Current

 Pravac vetra varies
Vetar: varies 9 km/h
Temperatura: 14°C
Tačka rose: 7°C
Vlažnost: 63%
Pritisak: 1010 hPa
Vidljivost: 10 km
2021/11/03 23:30 LYUZ 032330Z AUTO VRB05KT 9999 ////// 14/07 Q1010
LATI - Tirana, Albania
Distance from station: JI 183km
Ažurirano: 29/05/2024 04:20
Mostly Cloudy
Mostly Cloudy
 Pravac vetra J
Vetar: J 4 km/h
Temperatura: 17°C
Tačka rose: 16°C
Vlažnost: 94%
Pritisak: 1014 hPa
Oblaci: Mostly Cloudy
Vidljivost: 10 km
Cloud details: Mostly Cloudy 2621 m
2024/05/29 02:20 LATI 290220Z 17002KT 9999 BKN086 17/16 Q1014 NOSIG
LDSP - Split/Kastel Sta, Croatia
Distance from station: ZSZ 188km
Ažurirano: 29/05/2024 04:00
Mostly Cloudy
Mostly Cloudy
 Pravac vetra varies
Vetar: varies 2 km/h
Temperatura: 19°C
Tačka rose: 12°C
Vlažnost: 64%
Pritisak: 1014 hPa
Oblaci: Mostly Cloudy
Vidljivost: 10 km
Cloud details: Mostly Cloudy 2347 m
2024/05/29 02:00 LDSP 290200Z AUTO VRB01KT 9999 BKN077/// 19/12 Q1014 NOSIG
 
LQTZ - Tuzla, Bosnia-Herzegovina
Distance from station: S 198km
Ažurirano: 29/05/2024 04:00
Mostly Cloudy
Mostly Cloudy
 Pravac vetra Z
Vetar: Z 6 km/h
Temperatura: 13°C
Tačka rose: 13°C
Vlažnost: 100%
Pritisak: 1016 hPa
Oblaci: Mostly Cloudy
Vidljivost: 10 km
Cloud details: Few Clouds 610 m
Mostly Cloudy 914 m
2024/05/29 02:00 LQTZ 290200Z 26003KT 9999 FEW020 BKN030 13/13 Q1016